sensor_id;sensor_type;location;lat;lon;timestamp;P1;durP1;ratioP1;P2;durP2;ratioP2
18159;SDS011;9205;52.032;4.314;2024-02-23T00:00:22;23.00;;;21.83;;
18159;SDS011;9205;52.032;4.314;2024-02-23T00:02:51;22.53;;;21.43;;
18159;SDS011;9205;52.032;4.314;2024-02-23T00:05:19;25.80;;;24.50;;
18159;SDS011;9205;52.032;4.314;2024-02-23T00:07:46;23.70;;;22.50;;
18159;SDS011;9205;52.032;4.314;2024-02-23T00:10:13;18.30;;;17.40;;
18159;SDS011;9205;52.032;4.314;2024-02-23T00:12:41;18.97;;;18.03;;
18159;SDS011;9205;52.032;4.314;2024-02-23T00:15:09;17.00;;;16.20;;
18159;SDS011;9205;52.032;4.314;2024-02-23T00:17:36;17.87;;;16.97;;
18159;SDS011;9205;52.032;4.314;2024-02-23T00:20:08;17.80;;;16.90;;
18159;SDS011;9205;52.032;4.314;2024-02-23T00:22:37;16.73;;;15.63;;
18159;SDS011;9205;52.032;4.314;2024-02-23T00:25:04;17.23;;;16.23;;
18159;SDS011;9205;52.032;4.314;2024-02-23T00:27:32;16.80;;;16.00;;
18159;SDS011;9205;52.032;4.314;2024-02-23T00:30:00;19.13;;;17.10;;
18159;SDS011;9205;52.032;4.314;2024-02-23T00:32:27;15.87;;;15.07;;
18159;SDS011;9205;52.032;4.314;2024-02-23T00:34:55;16.90;;;16.10;;
18159;SDS011;9205;52.032;4.314;2024-02-23T00:37:24;17.37;;;16.47;;
18159;SDS011;9205;52.032;4.314;2024-02-23T00:39:52;14.80;;;14.00;;
18159;SDS011;9205;52.032;4.314;2024-02-23T00:42:19;14.60;;;13.80;;
18159;SDS011;9205;52.032;4.314;2024-02-23T00:44:47;14.17;;;13.47;;
18159;SDS011;9205;52.032;4.314;2024-02-23T00:47:14;15.33;;;14.53;;
18159;SDS011;9205;52.032;4.314;2024-02-23T00:49:41;16.37;;;15.57;;
18159;SDS011;9205;52.032;4.314;2024-02-23T00:52:09;16.93;;;15.83;;
18159;SDS011;9205;52.032;4.314;2024-02-23T00:54:38;11.83;;;11.23;;
18159;SDS011;9205;52.032;4.314;2024-02-23T00:57:05;10.60;;;10.10;;
18159;SDS011;9205;52.032;4.314;2024-02-23T00:59:32;11.30;;;10.60;;
18159;SDS011;9205;52.032;4.314;2024-02-23T01:01:59;11.77;;;11.00;;
18159;SDS011;9205;52.032;4.314;2024-02-23T01:04:26;11.30;;;10.60;;
18159;SDS011;9205;52.032;4.314;2024-02-23T01:06:54;11.13;;;10.53;;
18159;SDS011;9205;52.032;4.314;2024-02-23T01:09:21;35.37;;;11.37;;
18159;SDS011;9205;52.032;4.314;2024-02-23T01:11:49;10.50;;;10.00;;
18159;SDS011;9205;52.032;4.314;2024-02-23T01:14:16;12.30;;;11.70;;
18159;SDS011;9205;52.032;4.314;2024-02-23T01:16:43;15.03;;;14.33;;
18159;SDS011;9205;52.032;4.314;2024-02-23T01:19:11;19.80;;;15.83;;
18159;SDS011;9205;52.032;4.314;2024-02-23T01:21:38;17.43;;;16.53;;
18159;SDS011;9205;52.032;4.314;2024-02-23T01:24:05;16.20;;;15.40;;
18159;SDS011;9205;52.032;4.314;2024-02-23T01:26:32;16.97;;;16.07;;
18159;SDS011;9205;52.032;4.314;2024-02-23T01:29:01;15.43;;;14.33;;
18159;SDS011;9205;52.032;4.314;2024-02-23T01:31:29;14.00;;;13.30;;
18159;SDS011;9205;52.032;4.314;2024-02-23T01:33:56;16.17;;;15.20;;
18159;SDS011;9205;52.032;4.314;2024-02-23T01:36:23;13.67;;;12.97;;
18159;SDS011;9205;52.032;4.314;2024-02-23T01:38:51;14.60;;;13.90;;
18159;SDS011;9205;52.032;4.314;2024-02-23T01:41:18;13.30;;;12.70;;
18159;SDS011;9205;52.032;4.314;2024-02-23T01:43:45;14.07;;;13.10;;
18159;SDS011;9205;52.032;4.314;2024-02-23T01:46:13;14.10;;;13.30;;
18159;SDS011;9205;52.032;4.314;2024-02-23T01:48:43;13.87;;;13.17;;
18159;SDS011;9205;52.032;4.314;2024-02-23T01:51:11;13.37;;;12.77;;
18159;SDS011;9205;52.032;4.314;2024-02-23T01:53:39;13.43;;;12.77;;
18159;SDS011;9205;52.032;4.314;2024-02-23T01:56:06;12.80;;;12.10;;
18159;SDS011;9205;52.032;4.314;2024-02-23T01:58:38;13.17;;;12.57;;
18159;SDS011;9205;52.032;4.314;2024-02-23T02:01:06;12.10;;;11.50;;
18159;SDS011;9205;52.032;4.314;2024-02-23T02:03:35;11.23;;;10.63;;
18159;SDS011;9205;52.032;4.314;2024-02-23T02:06:04;18.20;;;11.20;;
18159;SDS011;9205;52.032;4.314;2024-02-23T02:08:33;12.17;;;11.20;;
18159;SDS011;9205;52.032;4.314;2024-02-23T02:11:00;10.80;;;10.30;;
18159;SDS011;9205;52.032;4.314;2024-02-23T02:13:28;17.13;;;10.90;;
18159;SDS011;9205;52.032;4.314;2024-02-23T02:15:55;11.03;;;10.43;;
18159;SDS011;9205;52.032;4.314;2024-02-23T02:18:23;11.00;;;10.50;;
18159;SDS011;9205;52.032;4.314;2024-02-23T02:20:52;11.17;;;10.20;;
18159;SDS011;9205;52.032;4.314;2024-02-23T02:23:22;10.70;;;10.20;;
18159;SDS011;9205;52.032;4.314;2024-02-23T02:25:52;11.40;;;10.80;;
18159;SDS011;9205;52.032;4.314;2024-02-23T02:28:19;12.60;;;11.63;;
18159;SDS011;9205;52.032;4.314;2024-02-23T02:30:48;9.40;;;9.00;;
18159;SDS011;9205;52.032;4.314;2024-02-23T02:33:15;10.50;;;10.00;;
18159;SDS011;9205;52.032;4.314;2024-02-23T02:35:42;12.23;;;11.07;;
18159;SDS011;9205;52.032;4.314;2024-02-23T02:38:11;10.50;;;10.00;;
18159;SDS011;9205;52.032;4.314;2024-02-23T02:40:38;11.03;;;10.53;;
18159;SDS011;9205;52.032;4.314;2024-02-23T02:43:05;12.03;;;11.43;;
18159;SDS011;9205;52.032;4.314;2024-02-23T02:45:34;10.50;;;10.00;;
18159;SDS011;9205;52.032;4.314;2024-02-23T02:48:01;10.80;;;10.30;;
18159;SDS011;9205;52.032;4.314;2024-02-23T02:50:29;9.90;;;9.37;;
18159;SDS011;9205;52.032;4.314;2024-02-23T02:52:57;10.50;;;10.00;;
18159;SDS011;9205;52.032;4.314;2024-02-23T02:55:25;9.70;;;9.23;;
18159;SDS011;9205;52.032;4.314;2024-02-23T02:57:52;10.27;;;9.77;;
18159;SDS011;9205;52.032;4.314;2024-02-23T03:00:20;10.00;;;9.50;;
18159;SDS011;9205;52.032;4.314;2024-02-23T03:02:47;10.00;;;9.50;;
18159;SDS011;9205;52.032;4.314;2024-02-23T03:05:14;10.17;;;9.37;;
18159;SDS011;9205;52.032;4.314;2024-02-23T03:07:41;10.27;;;9.77;;
18159;SDS011;9205;52.032;4.314;2024-02-23T03:10:08;9.10;;;8.70;;
18159;SDS011;9205;52.032;4.314;2024-02-23T03:12:37;9.97;;;9.47;;
18159;SDS011;9205;52.032;4.314;2024-02-23T03:15:04;10.60;;;10.10;;
18159;SDS011;9205;52.032;4.314;2024-02-23T03:17:32;12.03;;;11.43;;
18159;SDS011;9205;52.032;4.314;2024-02-23T03:19:59;13.27;;;12.57;;
18159;SDS011;9205;52.032;4.314;2024-02-23T03:22:26;13.43;;;12.73;;
18159;SDS011;9205;52.032;4.314;2024-02-23T03:24:53;13.10;;;12.50;;
18159;SDS011;9205;52.032;4.314;2024-02-23T03:27:21;12.73;;;12.13;;
18159;SDS011;9205;52.032;4.314;2024-02-23T03:29:56;14.20;;;13.50;;
18159;SDS011;9205;52.032;4.314;2024-02-23T03:32:23;14.17;;;13.33;;
18159;SDS011;9205;52.032;4.314;2024-02-23T03:34:50;13.77;;;13.07;;
18159;SDS011;9205;52.032;4.314;2024-02-23T03:37:18;13.10;;;12.50;;
18159;SDS011;9205;52.032;4.314;2024-02-23T03:39:45;13.10;;;12.40;;
18159;SDS011;9205;52.032;4.314;2024-02-23T03:42:13;13.80;;;13.00;;
18159;SDS011;9205;52.032;4.314;2024-02-23T03:44:41;13.37;;;12.77;;
18159;SDS011;9205;52.032;4.314;2024-02-23T03:47:10;14.20;;;13.43;;
18159;SDS011;9205;52.032;4.314;2024-02-23T03:49:37;13.23;;;12.63;;
18159;SDS011;9205;52.032;4.314;2024-02-23T03:52:04;16.67;;;14.80;;
18159;SDS011;9205;52.032;4.314;2024-02-23T03:54:32;14.50;;;13.60;;
18159;SDS011;9205;52.032;4.314;2024-02-23T03:56:59;15.00;;;14.20;;
18159;SDS011;9205;52.032;4.314;2024-02-23T03:59:26;15.50;;;14.70;;
18159;SDS011;9205;52.032;4.314;2024-02-23T04:01:53;14.47;;;13.77;;
18159;SDS011;9205;52.032;4.314;2024-02-23T04:04:22;15.50;;;14.70;;
18159;SDS011;9205;52.032;4.314;2024-02-23T04:06:49;15.80;;;15.00;;
18159;SDS011;9205;52.032;4.314;2024-02-23T04:09:16;14.70;;;14.00;;
18159;SDS011;9205;52.032;4.314;2024-02-23T04:11:43;15.00;;;14.30;;
18159;SDS011;9205;52.032;4.314;2024-02-23T04:14:13;16.60;;;15.63;;
18159;SDS011;9205;52.032;4.314;2024-02-23T04:16:40;15.07;;;14.27;;
18159;SDS011;9205;52.032;4.314;2024-02-23T04:19:07;16.13;;;15.33;;
18159;SDS011;9205;52.032;4.314;2024-02-23T04:21:36;17.77;;;16.57;;
18159;SDS011;9205;52.032;4.314;2024-02-23T04:24:03;15.60;;;14.80;;
18159;SDS011;9205;52.032;4.314;2024-02-23T04:26:31;17.67;;;16.00;;
18159;SDS011;9205;52.032;4.314;2024-02-23T04:28:58;16.60;;;15.80;;
18159;SDS011;9205;52.032;4.314;2024-02-23T04:31:25;16.13;;;15.33;;
18159;SDS011;9205;52.032;4.314;2024-02-23T04:33:52;16.50;;;15.60;;
18159;SDS011;9205;52.032;4.314;2024-02-23T04:36:20;15.90;;;15.10;;
18159;SDS011;9205;52.032;4.314;2024-02-23T04:38:48;17.10;;;16.30;;
18159;SDS011;9205;52.032;4.314;2024-02-23T04:41:18;16.23;;;15.43;;
18159;SDS011;9205;52.032;4.314;2024-02-23T04:43:47;17.03;;;16.07;;
18159;SDS011;9205;52.032;4.314;2024-02-23T04:46:14;16.30;;;15.40;;
18159;SDS011;9205;52.032;4.314;2024-02-23T04:48:41;16.77;;;15.87;;
18159;SDS011;9205;52.032;4.314;2024-02-23T04:51:08;15.10;;;14.40;;
18159;SDS011;9205;52.032;4.314;2024-02-23T04:53:36;14.57;;;13.87;;
18159;SDS011;9205;52.032;4.314;2024-02-23T04:56:05;14.30;;;13.60;;
18159;SDS011;9205;52.032;4.314;2024-02-23T04:58:32;14.63;;;13.93;;
18159;SDS011;9205;52.032;4.314;2024-02-23T05:01:00;13.90;;;13.20;;
18159;SDS011;9205;52.032;4.314;2024-02-23T05:03:28;16.40;;;15.60;;
18159;SDS011;9205;52.032;4.314;2024-02-23T05:05:55;15.93;;;15.13;;
18159;SDS011;9205;52.032;4.314;2024-02-23T05:08:23;17.90;;;17.00;;
18159;SDS011;9205;52.032;4.314;2024-02-23T05:10:51;19.50;;;18.50;;
18159;SDS011;9205;52.032;4.314;2024-02-23T05:13:20;18.80;;;17.90;;
18159;SDS011;9205;52.032;4.314;2024-02-23T05:15:47;18.90;;;18.00;;
18159;SDS011;9205;52.032;4.314;2024-02-23T05:18:14;19.27;;;18.37;;
18159;SDS011;9205;52.032;4.314;2024-02-23T05:20:42;19.90;;;18.90;;
18159;SDS011;9205;52.032;4.314;2024-02-23T05:23:09;20.10;;;19.10;;
18159;SDS011;9205;52.032;4.314;2024-02-23T05:25:36;18.70;;;17.80;;
18159;SDS011;9205;52.032;4.314;2024-02-23T05:28:04;18.30;;;17.40;;
18159;SDS011;9205;52.032;4.314;2024-02-23T05:30:33;17.30;;;16.40;;
18159;SDS011;9205;52.032;4.314;2024-02-23T05:33:00;17.93;;;17.03;;
18159;SDS011;9205;52.032;4.314;2024-02-23T05:35:28;18.57;;;17.37;;
18159;SDS011;9205;52.032;4.314;2024-02-23T05:37:55;17.17;;;16.30;;
18159;SDS011;9205;52.032;4.314;2024-02-23T05:40:24;16.20;;;15.40;;
18159;SDS011;9205;52.032;4.314;2024-02-23T05:42:51;16.67;;;15.77;;
18159;SDS011;9205;52.032;4.314;2024-02-23T05:45:18;16.60;;;15.80;;
18159;SDS011;9205;52.032;4.314;2024-02-23T05:47:46;16.20;;;15.40;;
18159;SDS011;9205;52.032;4.314;2024-02-23T05:50:13;16.80;;;15.90;;
18159;SDS011;9205;52.032;4.314;2024-02-23T05:52:41;16.83;;;16.03;;
18159;SDS011;9205;52.032;4.314;2024-02-23T05:55:08;16.80;;;16.00;;
18159;SDS011;9205;52.032;4.314;2024-02-23T05:57:35;17.33;;;16.53;;
18159;SDS011;9205;52.032;4.314;2024-02-23T06:00:03;17.50;;;16.63;;
18159;SDS011;9205;52.032;4.314;2024-02-23T06:02:38;17.83;;;16.93;;
18159;SDS011;9205;52.032;4.314;2024-02-23T06:05:07;17.80;;;16.43;;
18159;SDS011;9205;52.032;4.314;2024-02-23T06:07:34;16.77;;;15.97;;
18159;SDS011;9205;52.032;4.314;2024-02-23T06:10:02;19.40;;;16.10;;
18159;SDS011;9205;52.032;4.314;2024-02-23T06:12:30;16.90;;;16.10;;
18159;SDS011;9205;52.032;4.314;2024-02-23T06:14:57;17.30;;;16.40;;
18159;SDS011;9205;52.032;4.314;2024-02-23T06:17:24;17.33;;;16.43;;
18159;SDS011;9205;52.032;4.314;2024-02-23T06:19:52;17.70;;;16.80;;
18159;SDS011;9205;52.032;4.314;2024-02-23T06:22:23;17.17;;;16.30;;
18159;SDS011;9205;52.032;4.314;2024-02-23T06:24:50;17.77;;;16.13;;
18159;SDS011;9205;52.032;4.314;2024-02-23T06:27:18;17.60;;;16.70;;
18159;SDS011;9205;52.032;4.314;2024-02-23T06:29:47;17.70;;;16.80;;
18159;SDS011;9205;52.032;4.314;2024-02-23T06:32:15;18.57;;;17.47;;
18159;SDS011;9205;52.032;4.314;2024-02-23T06:34:42;16.67;;;15.87;;
18159;SDS011;9205;52.032;4.314;2024-02-23T06:37:10;17.00;;;16.20;;
18159;SDS011;9205;52.032;4.314;2024-02-23T06:39:40;17.90;;;17.00;;
18159;SDS011;9205;52.032;4.314;2024-02-23T06:42:07;17.67;;;16.77;;
18159;SDS011;9205;52.032;4.314;2024-02-23T06:44:34;16.47;;;15.37;;
18159;SDS011;9205;52.032;4.314;2024-02-23T06:47:01;16.50;;;15.70;;
18159;SDS011;9205;52.032;4.314;2024-02-23T06:49:29;16.70;;;15.90;;
18159;SDS011;9205;52.032;4.314;2024-02-23T06:51:56;21.83;;;15.90;;
18159;SDS011;9205;52.032;4.314;2024-02-23T06:54:23;16.93;;;15.77;;
18159;SDS011;9205;52.032;4.314;2024-02-23T06:56:52;15.30;;;14.60;;
18159;SDS011;9205;52.032;4.314;2024-02-23T06:59:19;17.10;;;15.63;;
18159;SDS011;9205;52.032;4.314;2024-02-23T07:01:49;16.03;;;15.23;;
18159;SDS011;9205;52.032;4.314;2024-02-23T07:04:16;16.20;;;15.30;;
18159;SDS011;9205;52.032;4.314;2024-02-23T07:06:44;15.50;;;14.70;;
18159;SDS011;9205;52.032;4.314;2024-02-23T07:09:11;15.97;;;15.17;;
18159;SDS011;9205;52.032;4.314;2024-02-23T07:11:39;16.92;;;16.02;;
18159;SDS011;9205;52.032;4.314;2024-02-23T07:14:10;15.90;;;15.10;;
18159;SDS011;9205;52.032;4.314;2024-02-23T07:16:39;16.57;;;15.77;;
18159;SDS011;9205;52.032;4.314;2024-02-23T07:19:07;17.10;;;16.30;;
18159;SDS011;9205;52.032;4.314;2024-02-23T07:21:35;17.77;;;16.87;;
18159;SDS011;9205;52.032;4.314;2024-02-23T07:24:03;16.40;;;15.60;;
18159;SDS011;9205;52.032;4.314;2024-02-23T07:26:30;18.27;;;17.37;;
18159;SDS011;9205;52.032;4.314;2024-02-23T07:28:57;17.90;;;17.00;;
18159;SDS011;9205;52.032;4.314;2024-02-23T07:31:26;20.50;;;19.50;;
18159;SDS011;9205;52.032;4.314;2024-02-23T07:33:53;21.57;;;20.47;;
18159;SDS011;9205;52.032;4.314;2024-02-23T07:36:20;19.77;;;18.77;;
18159;SDS011;9205;52.032;4.314;2024-02-23T07:38:48;18.50;;;17.60;;
18159;SDS011;9205;52.032;4.314;2024-02-23T07:41:15;18.93;;;18.03;;
18159;SDS011;9205;52.032;4.314;2024-02-23T07:43:43;20.73;;;19.63;;
18159;SDS011;9205;52.032;4.314;2024-02-23T07:46:12;19.17;;;16.80;;
18159;SDS011;9205;52.032;4.314;2024-02-23T07:48:40;18.33;;;17.33;;
18159;SDS011;9205;52.032;4.314;2024-02-23T07:51:08;18.50;;;17.60;;
18159;SDS011;9205;52.032;4.314;2024-02-23T07:53:36;15.27;;;14.53;;
18159;SDS011;9205;52.032;4.314;2024-02-23T07:56:03;16.87;;;15.97;;
18159;SDS011;9205;52.032;4.314;2024-02-23T07:58:34;18.47;;;16.90;;
18159;SDS011;9205;52.032;4.314;2024-02-23T08:01:01;16.73;;;15.90;;
18159;SDS011;9205;52.032;4.314;2024-02-23T08:03:29;15.50;;;14.70;;
18159;SDS011;9205;52.032;4.314;2024-02-23T08:05:58;15.17;;;14.47;;
18159;SDS011;9205;52.032;4.314;2024-02-23T08:08:26;17.07;;;16.23;;
18159;SDS011;9205;52.032;4.314;2024-02-23T08:10:53;16.40;;;15.60;;
18159;SDS011;9205;52.032;4.314;2024-02-23T08:13:20;17.23;;;16.20;;
18159;SDS011;9205;52.032;4.314;2024-02-23T08:15:47;17.20;;;16.20;;
18159;SDS011;9205;52.032;4.314;2024-02-23T08:18:14;15.80;;;15.00;;
18159;SDS011;9205;52.032;4.314;2024-02-23T08:20:42;16.90;;;15.53;;
18159;SDS011;9205;52.032;4.314;2024-02-23T08:23:10;17.90;;;17.00;;
18159;SDS011;9205;52.032;4.314;2024-02-23T08:25:37;18.70;;;17.50;;
18159;SDS011;9205;52.032;4.314;2024-02-23T08:28:05;17.60;;;16.70;;
18159;SDS011;9205;52.032;4.314;2024-02-23T08:30:32;18.03;;;17.07;;
18159;SDS011;9205;52.032;4.314;2024-02-23T08:33:00;18.27;;;17.37;;
18159;SDS011;9205;52.032;4.314;2024-02-23T08:35:27;19.40;;;18.40;;
18159;SDS011;9205;52.032;4.314;2024-02-23T08:37:54;17.33;;;16.53;;
18159;SDS011;9205;52.032;4.314;2024-02-23T08:40:23;17.43;;;16.60;;
18159;SDS011;9205;52.032;4.314;2024-02-23T08:42:50;16.97;;;16.07;;
18159;SDS011;9205;52.032;4.314;2024-02-23T08:45:17;18.67;;;17.77;;
18159;SDS011;9205;52.032;4.314;2024-02-23T08:47:45;16.30;;;15.50;;
18159;SDS011;9205;52.032;4.314;2024-02-23T08:50:12;18.80;;;17.80;;
18159;SDS011;9205;52.032;4.314;2024-02-23T08:52:39;18.57;;;17.67;;
18159;SDS011;9205;52.032;4.314;2024-02-23T08:55:07;19.07;;;18.17;;
18159;SDS011;9205;52.032;4.314;2024-02-23T08:57:36;19.27;;;18.37;;
18159;SDS011;9205;52.032;4.314;2024-02-23T09:00:03;19.00;;;18.10;;
18159;SDS011;9205;52.032;4.314;2024-02-23T09:02:33;17.97;;;17.07;;
18159;SDS011;9205;52.032;4.314;2024-02-23T09:05:03;18.63;;;17.73;;
18159;SDS011;9205;52.032;4.314;2024-02-23T09:07:31;19.47;;;18.50;;
18159;SDS011;9205;52.032;4.314;2024-02-23T09:09:59;17.63;;;16.63;;
18159;SDS011;9205;52.032;4.314;2024-02-23T09:12:26;17.07;;;16.27;;
18159;SDS011;9205;52.032;4.314;2024-02-23T09:14:55;17.80;;;16.90;;
18159;SDS011;9205;52.032;4.314;2024-02-23T09:17:22;18.90;;;18.00;;
18159;SDS011;9205;52.032;4.314;2024-02-23T09:19:50;21.47;;;20.37;;
18159;SDS011;9205;52.032;4.314;2024-02-23T09:22:18;20.47;;;19.43;;
18159;SDS011;9205;52.032;4.314;2024-02-23T09:24:45;21.70;;;20.60;;
18159;SDS011;9205;52.032;4.314;2024-02-23T09:27:12;20.23;;;19.10;;
18159;SDS011;9205;52.032;4.314;2024-02-23T09:29:40;21.07;;;19.97;;
18159;SDS011;9205;52.032;4.314;2024-02-23T09:32:09;20.47;;;19.37;;
18159;SDS011;9205;52.032;4.314;2024-02-23T09:34:36;22.03;;;20.30;;
18159;SDS011;9205;52.032;4.314;2024-02-23T09:37:04;22.90;;;21.70;;
18159;SDS011;9205;52.032;4.314;2024-02-23T09:39:31;20.20;;;19.20;;
18159;SDS011;9205;52.032;4.314;2024-02-23T09:41:58;20.57;;;19.57;;
18159;SDS011;9205;52.032;4.314;2024-02-23T09:44:31;22.03;;;20.93;;
18159;SDS011;9205;52.032;4.314;2024-02-23T09:46:59;21.40;;;20.30;;
18159;SDS011;9205;52.032;4.314;2024-02-23T09:49:34;21.50;;;20.40;;
18159;SDS011;9205;52.032;4.314;2024-02-23T09:52:07;22.57;;;21.43;;
18159;SDS011;9205;52.032;4.314;2024-02-23T09:54:36;20.27;;;19.27;;
18159;SDS011;9205;52.032;4.314;2024-02-23T09:57:06;21.50;;;20.40;;
18159;SDS011;9205;52.032;4.314;2024-02-23T09:59:35;21.73;;;20.63;;
18159;SDS011;9205;52.032;4.314;2024-02-23T10:02:03;20.50;;;19.50;;
18159;SDS011;9205;52.032;4.314;2024-02-23T10:04:37;19.07;;;18.17;;
18159;SDS011;9205;52.032;4.314;2024-02-23T10:07:06;22.00;;;20.90;;
18159;SDS011;9205;52.032;4.314;2024-02-23T10:09:33;21.20;;;20.10;;
18159;SDS011;9205;52.032;4.314;2024-02-23T10:12:01;20.30;;;19.20;;
18159;SDS011;9205;52.032;4.314;2024-02-23T10:14:28;21.13;;;20.00;;
18159;SDS011;9205;52.032;4.314;2024-02-23T10:16:56;21.00;;;20.00;;
18159;SDS011;9205;52.032;4.314;2024-02-23T10:19:23;21.00;;;20.00;;
18159;SDS011;9205;52.032;4.314;2024-02-23T10:21:55;21.97;;;20.87;;
18159;SDS011;9205;52.032;4.314;2024-02-23T10:24:23;22.10;;;20.90;;
18159;SDS011;9205;52.032;4.314;2024-02-23T10:26:51;18.47;;;17.47;;
18159;SDS011;9205;52.032;4.314;2024-02-23T10:29:18;20.90;;;19.90;;
18159;SDS011;9205;52.032;4.314;2024-02-23T10:31:46;19.90;;;18.90;;
18159;SDS011;9205;52.032;4.314;2024-02-23T10:34:16;17.60;;;16.70;;
18159;SDS011;9205;52.032;4.314;2024-02-23T10:36:46;21.00;;;20.00;;
18159;SDS011;9205;52.032;4.314;2024-02-23T10:39:17;19.40;;;18.40;;
18159;SDS011;9205;52.032;4.314;2024-02-23T10:41:46;18.13;;;17.23;;
18159;SDS011;9205;52.032;4.314;2024-02-23T10:44:22;18.83;;;17.93;;
18159;SDS011;9205;52.032;4.314;2024-02-23T10:46:50;19.47;;;18.43;;
18159;SDS011;9205;52.032;4.314;2024-02-23T10:49:19;19.63;;;18.63;;
18159;SDS011;9205;52.032;4.314;2024-02-23T10:51:51;19.90;;;18.90;;
18159;SDS011;9205;52.032;4.314;2024-02-23T10:54:21;20.27;;;19.27;;
18159;SDS011;9205;52.032;4.314;2024-02-23T10:56:49;20.00;;;18.60;;
18159;SDS011;9205;52.032;4.314;2024-02-23T10:59:17;20.97;;;19.20;;
18159;SDS011;9205;52.032;4.314;2024-02-23T11:01:47;21.67;;;20.57;;
18159;SDS011;9205;52.032;4.314;2024-02-23T11:04:17;21.20;;;20.07;;
18159;SDS011;9205;52.032;4.314;2024-02-23T11:06:49;20.33;;;19.33;;
18159;SDS011;9205;52.032;4.314;2024-02-23T11:09:20;17.13;;;16.33;;
18159;SDS011;9205;52.032;4.314;2024-02-23T11:11:53;18.20;;;17.20;;
18159;SDS011;9205;52.032;4.314;2024-02-23T11:14:30;18.47;;;17.57;;
18159;SDS011;9205;52.032;4.314;2024-02-23T11:16:58;16.83;;;16.03;;
18159;SDS011;9205;52.032;4.314;2024-02-23T11:19:32;18.57;;;16.80;;
18159;SDS011;9205;52.032;4.314;2024-02-23T11:22:01;18.50;;;17.43;;
18159;SDS011;9205;52.032;4.314;2024-02-23T11:24:30;17.50;;;16.63;;
18159;SDS011;9205;52.032;4.314;2024-02-23T11:26:58;18.20;;;17.30;;
18159;SDS011;9205;52.032;4.314;2024-02-23T11:29:33;16.87;;;16.07;;
18159;SDS011;9205;52.032;4.314;2024-02-23T11:32:01;16.20;;;15.40;;
18159;SDS011;9205;52.032;4.314;2024-02-23T11:34:29;16.50;;;15.70;;
18159;SDS011;9205;52.032;4.314;2024-02-23T11:36:57;17.70;;;16.80;;
18159;SDS011;9205;52.032;4.314;2024-02-23T11:39:25;16.00;;;15.20;;
18159;SDS011;9205;52.032;4.314;2024-02-23T11:41:54;16.67;;;15.53;;
18159;SDS011;9205;52.032;4.314;2024-02-23T11:44:24;17.50;;;16.17;;
18159;SDS011;9205;52.032;4.314;2024-02-23T11:46:51;17.27;;;16.43;;
18159;SDS011;9205;52.032;4.314;2024-02-23T11:49:18;17.03;;;16.20;;
18159;SDS011;9205;52.032;4.314;2024-02-23T11:51:46;15.30;;;14.60;;
18159;SDS011;9205;52.032;4.314;2024-02-23T11:54:13;18.20;;;17.30;;
18159;SDS011;9205;52.032;4.314;2024-02-23T11:56:41;18.00;;;17.10;;
18159;SDS011;9205;52.032;4.314;2024-02-23T11:59:09;16.07;;;15.27;;
18159;SDS011;9205;52.032;4.314;2024-02-23T12:01:37;16.47;;;15.67;;
18159;SDS011;9205;52.032;4.314;2024-02-23T12:04:05;15.73;;;14.93;;
18159;SDS011;9205;52.032;4.314;2024-02-23T12:06:32;16.90;;;16.10;;
18159;SDS011;9205;52.032;4.314;2024-02-23T12:09:00;17.57;;;16.67;;
18159;SDS011;9205;52.032;4.314;2024-02-23T12:11:29;16.40;;;15.50;;
18159;SDS011;9205;52.032;4.314;2024-02-23T12:13:57;15.73;;;14.83;;
18159;SDS011;9205;52.032;4.314;2024-02-23T12:16:26;16.30;;;15.50;;
18159;SDS011;9205;52.032;4.314;2024-02-23T12:18:53;14.33;;;13.63;;
18159;SDS011;9205;52.032;4.314;2024-02-23T12:21:22;13.50;;;12.80;;
18159;SDS011;9205;52.032;4.314;2024-02-23T12:23:50;13.60;;;12.90;;
18159;SDS011;9205;52.032;4.314;2024-02-23T12:26:18;14.73;;;13.60;;
18159;SDS011;9205;52.032;4.314;2024-02-23T12:28:46;15.07;;;14.37;;
18159;SDS011;9205;52.032;4.314;2024-02-23T12:31:13;12.70;;;12.10;;
18159;SDS011;9205;52.032;4.314;2024-02-23T12:33:42;13.30;;;12.70;;
18159;SDS011;9205;52.032;4.314;2024-02-23T12:36:13;13.60;;;12.60;;
18159;SDS011;9205;52.032;4.314;2024-02-23T12:38:41;14.80;;;14.10;;
18159;SDS011;9205;52.032;4.314;2024-02-23T12:41:08;14.17;;;12.93;;
18159;SDS011;9205;52.032;4.314;2024-02-23T12:43:36;14.67;;;13.97;;
18159;SDS011;9205;52.032;4.314;2024-02-23T12:46:03;14.27;;;13.57;;
18159;SDS011;9205;52.032;4.314;2024-02-23T12:48:32;12.33;;;11.73;;
18159;SDS011;9205;52.032;4.314;2024-02-23T12:51:00;14.07;;;13.37;;
18159;SDS011;9205;52.032;4.314;2024-02-23T12:53:31;12.30;;;11.70;;
18159;SDS011;9205;52.032;4.314;2024-02-23T12:56:01;13.33;;;12.40;;
18159;SDS011;9205;52.032;4.314;2024-02-23T12:58:31;13.03;;;12.23;;
18159;SDS011;9205;52.032;4.314;2024-02-23T13:00:58;15.23;;;14.47;;
18159;SDS011;9205;52.032;4.314;2024-02-23T13:03:25;15.03;;;14.33;;
18159;SDS011;9205;52.032;4.314;2024-02-23T13:05:53;14.50;;;13.80;;
18159;SDS011;9205;52.032;4.314;2024-02-23T13:08:23;14.90;;;14.20;;
18159;SDS011;9205;52.032;4.314;2024-02-23T13:10:51;15.77;;;14.97;;
18159;SDS011;9205;52.032;4.314;2024-02-23T13:13:20;14.00;;;13.30;;
18159;SDS011;9205;52.032;4.314;2024-02-23T13:15:48;13.57;;;12.87;;
18159;SDS011;9205;52.032;4.314;2024-02-23T13:18:17;12.67;;;12.07;;
18159;SDS011;9205;52.032;4.314;2024-02-23T13:20:45;11.23;;;10.73;;
18159;SDS011;9205;52.032;4.314;2024-02-23T13:23:12;12.83;;;12.23;;
18159;SDS011;9205;52.032;4.314;2024-02-23T13:25:42;14.40;;;13.70;;
18159;SDS011;9205;52.032;4.314;2024-02-23T13:28:10;13.90;;;13.20;;
18159;SDS011;9205;52.032;4.314;2024-02-23T13:30:38;12.60;;;12.00;;
18159;SDS011;9205;52.032;4.314;2024-02-23T13:33:05;12.90;;;12.30;;
18159;SDS011;9205;52.032;4.314;2024-02-23T13:35:33;12.47;;;11.87;;
18159;SDS011;9205;52.032;4.314;2024-02-23T13:38:00;12.60;;;12.00;;
18159;SDS011;9205;52.032;4.314;2024-02-23T13:40:28;13.20;;;12.60;;
18159;SDS011;9205;52.032;4.314;2024-02-23T13:42:57;11.97;;;11.37;;
18159;SDS011;9205;52.032;4.314;2024-02-23T13:45:24;12.67;;;12.07;;
18159;SDS011;9205;52.032;4.314;2024-02-23T13:47:55;13.00;;;12.23;;
18159;SDS011;9205;52.032;4.314;2024-02-23T13:50:24;12.23;;;11.63;;
18159;SDS011;9205;52.032;4.314;2024-02-23T13:52:51;11.33;;;10.83;;
18159;SDS011;9205;52.032;4.314;2024-02-23T13:55:19;13.07;;;12.37;;
18159;SDS011;9205;52.032;4.314;2024-02-23T13:57:47;11.80;;;11.20;;
18159;SDS011;9205;52.032;4.314;2024-02-23T14:00:16;11.73;;;11.13;;
18159;SDS011;9205;52.032;4.314;2024-02-23T14:02:45;12.47;;;11.87;;
18159;SDS011;9205;52.032;4.314;2024-02-23T14:05:13;11.40;;;10.83;;
18159;SDS011;9205;52.032;4.314;2024-02-23T14:07:40;10.67;;;10.17;;
18159;SDS011;9205;52.032;4.314;2024-02-23T14:10:08;11.10;;;10.60;;
18159;SDS011;9205;52.032;4.314;2024-02-23T14:12:35;9.80;;;9.30;;
18159;SDS011;9205;52.032;4.314;2024-02-23T14:15:03;10.17;;;9.67;;
18159;SDS011;9205;52.032;4.314;2024-02-23T14:17:32;9.37;;;8.97;;
18159;SDS011;9205;52.032;4.314;2024-02-23T14:20:00;10.60;;;10.10;;
18159;SDS011;9205;52.032;4.314;2024-02-23T14:22:28;10.90;;;10.40;;
18159;SDS011;9205;52.032;4.314;2024-02-23T14:24:56;9.60;;;9.20;;
18159;SDS011;9205;52.032;4.314;2024-02-23T14:27:24;10.70;;;10.20;;
18159;SDS011;9205;52.032;4.314;2024-02-23T14:29:52;10.10;;;9.60;;
18159;SDS011;9205;52.032;4.314;2024-02-23T14:32:19;9.80;;;9.30;;
18159;SDS011;9205;52.032;4.314;2024-02-23T14:34:48;10.60;;;10.10;;
18159;SDS011;9205;52.032;4.314;2024-02-23T14:37:15;9.50;;;9.00;;
18159;SDS011;9205;52.032;4.314;2024-02-23T14:39:42;9.57;;;9.17;;